sensor_id;sensor_type;location;lat;lon;timestamp;P1;durP1;ratioP1;P2;durP2;ratioP2
22080;SDS011;11207;59.512;18.050;2023-04-25T00:01:56;9.07;;;6.07;;
22080;SDS011;11207;59.512;18.050;2023-04-25T00:04:22;7.27;;;5.80;;
22080;SDS011;11207;59.512;18.050;2023-04-25T00:06:48;9.63;;;6.23;;
22080;SDS011;11207;59.512;18.050;2023-04-25T00:09:13;9.37;;;6.40;;
22080;SDS011;11207;59.512;18.050;2023-04-25T00:11:40;8.80;;;5.80;;
22080;SDS011;11207;59.512;18.050;2023-04-25T00:14:05;8.30;;;5.73;;
22080;SDS011;11207;59.512;18.050;2023-04-25T00:16:31;10.00;;;6.20;;
22080;SDS011;11207;59.512;18.050;2023-04-25T00:19:00;6.70;;;5.60;;
22080;SDS011;11207;59.512;18.050;2023-04-25T00:21:27;8.10;;;5.77;;
22080;SDS011;11207;59.512;18.050;2023-04-25T00:23:53;9.10;;;6.07;;
22080;SDS011;11207;59.512;18.050;2023-04-25T00:26:20;8.77;;;5.87;;
22080;SDS011;11207;59.512;18.050;2023-04-25T00:28:46;7.87;;;5.87;;
22080;SDS011;11207;59.512;18.050;2023-04-25T00:31:12;10.10;;;6.00;;
22080;SDS011;11207;59.512;18.050;2023-04-25T00:33:38;11.73;;;5.57;;
22080;SDS011;11207;59.512;18.050;2023-04-25T00:36:04;5.33;;;4.83;;
22080;SDS011;11207;59.512;18.050;2023-04-25T00:38:31;8.07;;;6.50;;
22080;SDS011;11207;59.512;18.050;2023-04-25T00:40:56;6.27;;;5.43;;
22080;SDS011;11207;59.512;18.050;2023-04-25T00:43:23;7.00;;;6.40;;
22080;SDS011;11207;59.512;18.050;2023-04-25T00:45:53;6.93;;;6.00;;
22080;SDS011;11207;59.512;18.050;2023-04-25T00:48:19;7.00;;;5.70;;
22080;SDS011;11207;59.512;18.050;2023-04-25T00:50:51;9.03;;;6.30;;
22080;SDS011;11207;59.512;18.050;2023-04-25T00:53:43;8.80;;;6.60;;
22080;SDS011;11207;59.512;18.050;2023-04-25T00:56:09;6.53;;;5.57;;
22080;SDS011;11207;59.512;18.050;2023-04-25T00:58:35;7.30;;;6.60;;
22080;SDS011;11207;59.512;18.050;2023-04-25T01:01:02;8.00;;;6.80;;
22080;SDS011;11207;59.512;18.050;2023-04-25T01:03:28;6.40;;;5.80;;
22080;SDS011;11207;59.512;18.050;2023-04-25T01:05:55;7.50;;;6.53;;
22080;SDS011;11207;59.512;18.050;2023-04-25T01:08:22;6.97;;;6.27;;
22080;SDS011;11207;59.512;18.050;2023-04-25T01:10:50;7.97;;;6.40;;
22080;SDS011;11207;59.512;18.050;2023-04-25T01:13:15;7.47;;;6.37;;
22080;SDS011;11207;59.512;18.050;2023-04-25T01:15:41;7.07;;;6.07;;
22080;SDS011;11207;59.512;18.050;2023-04-25T01:18:07;7.40;;;6.60;;
22080;SDS011;11207;59.512;18.050;2023-04-25T01:20:33;8.10;;;6.97;;
22080;SDS011;11207;59.512;18.050;2023-04-25T01:23:05;8.70;;;7.57;;
22080;SDS011;11207;59.512;18.050;2023-04-25T01:25:31;10.13;;;7.00;;
22080;SDS011;11207;59.512;18.050;2023-04-25T01:27:57;7.87;;;7.07;;
22080;SDS011;11207;59.512;18.050;2023-04-25T01:30:24;7.87;;;6.97;;
22080;SDS011;11207;59.512;18.050;2023-04-25T01:32:51;9.40;;;6.90;;
22080;SDS011;11207;59.512;18.050;2023-04-25T01:35:19;8.00;;;6.67;;
22080;SDS011;11207;59.512;18.050;2023-04-25T01:37:45;7.47;;;6.60;;
22080;SDS011;11207;59.512;18.050;2023-04-25T01:40:11;7.10;;;6.40;;
22080;SDS011;11207;59.512;18.050;2023-04-25T01:42:38;7.57;;;6.77;;
22080;SDS011;11207;59.512;18.050;2023-04-25T01:45:06;6.73;;;6.13;;
22080;SDS011;11207;59.512;18.050;2023-04-25T01:47:32;9.10;;;6.83;;
22080;SDS011;11207;59.512;18.050;2023-04-25T01:50:00;7.27;;;6.43;;
22080;SDS011;11207;59.512;18.050;2023-04-25T01:52:27;8.33;;;6.17;;
22080;SDS011;11207;59.512;18.050;2023-04-25T01:54:52;9.40;;;6.03;;
22080;SDS011;11207;59.512;18.050;2023-04-25T02:00:11;8.63;;;6.70;;
22080;SDS011;11207;59.512;18.050;2023-04-25T02:02:37;7.60;;;6.07;;
22080;SDS011;11207;59.512;18.050;2023-04-25T02:05:02;6.10;;;5.53;;
22080;SDS011;11207;59.512;18.050;2023-04-25T02:07:28;6.63;;;5.93;;
22080;SDS011;11207;59.512;18.050;2023-04-25T02:09:54;6.80;;;6.07;;
22080;SDS011;11207;59.512;18.050;2023-04-25T02:12:20;7.13;;;6.17;;
22080;SDS011;11207;59.512;18.050;2023-04-25T02:14:45;7.07;;;6.23;;
22080;SDS011;11207;59.512;18.050;2023-04-25T02:17:11;5.80;;;5.20;;
22080;SDS011;11207;59.512;18.050;2023-04-25T02:19:37;5.63;;;5.13;;
22080;SDS011;11207;59.512;18.050;2023-04-25T02:22:03;6.03;;;5.50;;
22080;SDS011;11207;59.512;18.050;2023-04-25T02:24:29;6.27;;;5.67;;
22080;SDS011;11207;59.512;18.050;2023-04-25T02:26:55;5.60;;;5.00;;
22080;SDS011;11207;59.512;18.050;2023-04-25T02:29:21;6.03;;;5.43;;
22080;SDS011;11207;59.512;18.050;2023-04-25T02:31:46;6.80;;;4.93;;
22080;SDS011;11207;59.512;18.050;2023-04-25T02:34:12;5.43;;;4.93;;
22080;SDS011;11207;59.512;18.050;2023-04-25T02:36:38;5.83;;;5.33;;
22080;SDS011;11207;59.512;18.050;2023-04-25T02:39:22;5.20;;;4.70;;
22080;SDS011;11207;59.512;18.050;2023-04-25T02:41:49;5.80;;;5.10;;
22080;SDS011;11207;59.512;18.050;2023-04-25T02:44:15;4.87;;;4.37;;
22080;SDS011;11207;59.512;18.050;2023-04-25T02:46:41;4.40;;;4.10;;
22080;SDS011;11207;59.512;18.050;2023-04-25T02:49:06;4.87;;;4.37;;
22080;SDS011;11207;59.512;18.050;2023-04-25T02:51:32;5.00;;;4.50;;
22080;SDS011;11207;59.512;18.050;2023-04-25T02:53:58;4.60;;;4.20;;
22080;SDS011;11207;59.512;18.050;2023-04-25T02:56:23;5.40;;;4.90;;
22080;SDS011;11207;59.512;18.050;2023-04-25T02:58:51;4.70;;;4.30;;
22080;SDS011;11207;59.512;18.050;2023-04-25T03:01:17;4.93;;;4.43;;
22080;SDS011;11207;59.512;18.050;2023-04-25T03:03:42;4.83;;;4.43;;
22080;SDS011;11207;59.512;18.050;2023-04-25T03:06:08;4.50;;;4.10;;
22080;SDS011;11207;59.512;18.050;2023-04-25T03:08:33;4.93;;;4.47;;
22080;SDS011;11207;59.512;18.050;2023-04-25T03:10:59;4.27;;;3.87;;
22080;SDS011;11207;59.512;18.050;2023-04-25T03:13:25;4.37;;;3.97;;
22080;SDS011;11207;59.512;18.050;2023-04-25T03:18:24;5.20;;;4.23;;
22080;SDS011;11207;59.512;18.050;2023-04-25T03:20:52;4.27;;;3.87;;
22080;SDS011;11207;59.512;18.050;2023-04-25T03:23:18;4.43;;;4.07;;
22080;SDS011;11207;59.512;18.050;2023-04-25T03:28:53;4.00;;;3.70;;
22080;SDS011;11207;59.512;18.050;2023-04-25T03:31:19;3.63;;;3.43;;
22080;SDS011;11207;59.512;18.050;2023-04-25T03:33:45;3.63;;;3.43;;
22080;SDS011;11207;59.512;18.050;2023-04-25T03:36:11;3.47;;;3.17;;
22080;SDS011;11207;59.512;18.050;2023-04-25T03:38:36;3.20;;;3.00;;
22080;SDS011;11207;59.512;18.050;2023-04-25T03:41:02;4.77;;;3.60;;
22080;SDS011;11207;59.512;18.050;2023-04-25T03:43:28;3.40;;;3.20;;
22080;SDS011;11207;59.512;18.050;2023-04-25T03:49:15;3.07;;;2.87;;
22080;SDS011;11207;59.512;18.050;2023-04-25T03:51:41;3.33;;;3.13;;
22080;SDS011;11207;59.512;18.050;2023-04-25T03:54:07;3.60;;;3.30;;
22080;SDS011;11207;59.512;18.050;2023-04-25T03:56:32;3.30;;;3.10;;
22080;SDS011;11207;59.512;18.050;2023-04-25T03:58:58;3.30;;;3.10;;
22080;SDS011;11207;59.512;18.050;2023-04-25T04:01:24;3.40;;;3.20;;
22080;SDS011;11207;59.512;18.050;2023-04-25T04:03:50;3.20;;;3.00;;
22080;SDS011;11207;59.512;18.050;2023-04-25T04:06:16;3.17;;;2.97;;
22080;SDS011;11207;59.512;18.050;2023-04-25T04:08:41;3.07;;;2.90;;
22080;SDS011;11207;59.512;18.050;2023-04-25T04:11:10;3.30;;;3.10;;
22080;SDS011;11207;59.512;18.050;2023-04-25T04:13:36;3.23;;;3.03;;
22080;SDS011;11207;59.512;18.050;2023-04-25T04:16:03;3.23;;;3.03;;
22080;SDS011;11207;59.512;18.050;2023-04-25T04:18:29;3.13;;;2.93;;
22080;SDS011;11207;59.512;18.050;2023-04-25T04:20:55;3.13;;;2.93;;
22080;SDS011;11207;59.512;18.050;2023-04-25T04:23:23;3.03;;;2.83;;
22080;SDS011;11207;59.512;18.050;2023-04-25T04:25:48;3.13;;;2.93;;
22080;SDS011;11207;59.512;18.050;2023-04-25T04:28:14;3.37;;;3.17;;
22080;SDS011;11207;59.512;18.050;2023-04-25T04:31:08;3.30;;;3.10;;
22080;SDS011;11207;59.512;18.050;2023-04-25T04:33:34;3.00;;;2.80;;
22080;SDS011;11207;59.512;18.050;2023-04-25T04:36:00;3.60;;;3.30;;
22080;SDS011;11207;59.512;18.050;2023-04-25T04:38:25;3.43;;;3.23;;
22080;SDS011;11207;59.512;18.050;2023-04-25T04:40:51;3.07;;;2.87;;
22080;SDS011;11207;59.512;18.050;2023-04-25T04:43:24;3.10;;;2.90;;
22080;SDS011;11207;59.512;18.050;2023-04-25T04:45:49;3.30;;;3.10;;
22080;SDS011;11207;59.512;18.050;2023-04-25T04:48:15;3.53;;;3.33;;
22080;SDS011;11207;59.512;18.050;2023-04-25T04:50:44;3.47;;;3.17;;
22080;SDS011;11207;59.512;18.050;2023-04-25T04:53:11;3.30;;;3.10;;
22080;SDS011;11207;59.512;18.050;2023-04-25T04:55:58;3.17;;;2.97;;
22080;SDS011;11207;59.512;18.050;2023-04-25T04:58:24;3.20;;;3.00;;
22080;SDS011;11207;59.512;18.050;2023-04-25T05:00:50;3.30;;;3.10;;
22080;SDS011;11207;59.512;18.050;2023-04-25T05:03:15;3.40;;;3.20;;
22080;SDS011;11207;59.512;18.050;2023-04-25T05:05:41;3.30;;;3.10;;
22080;SDS011;11207;59.512;18.050;2023-04-25T05:08:10;3.70;;;3.50;;
22080;SDS011;11207;59.512;18.050;2023-04-25T05:10:36;3.70;;;3.40;;
22080;SDS011;11207;59.512;18.050;2023-04-25T05:13:02;3.53;;;3.23;;
22080;SDS011;11207;59.512;18.050;2023-04-25T05:15:27;5.90;;;3.60;;
22080;SDS011;11207;59.512;18.050;2023-04-25T05:17:53;4.03;;;3.73;;
22080;SDS011;11207;59.512;18.050;2023-04-25T05:20:19;3.90;;;3.60;;
22080;SDS011;11207;59.512;18.050;2023-04-25T05:22:45;3.90;;;3.60;;
22080;SDS011;11207;59.512;18.050;2023-04-25T05:25:10;3.87;;;3.60;;
22080;SDS011;11207;59.512;18.050;2023-04-25T05:27:36;4.87;;;3.40;;
22080;SDS011;11207;59.512;18.050;2023-04-25T05:30:02;3.93;;;3.63;;
22080;SDS011;11207;59.512;18.050;2023-04-25T05:32:31;3.93;;;3.53;;
22080;SDS011;11207;59.512;18.050;2023-04-25T05:34:56;4.30;;;3.90;;
22080;SDS011;11207;59.512;18.050;2023-04-25T05:37:22;4.30;;;3.87;;
22080;SDS011;11207;59.512;18.050;2023-04-25T05:39:47;4.40;;;4.00;;
22080;SDS011;11207;59.512;18.050;2023-04-25T05:42:13;5.27;;;4.23;;
22080;SDS011;11207;59.512;18.050;2023-04-25T05:44:39;5.03;;;4.07;;
22080;SDS011;11207;59.512;18.050;2023-04-25T05:47:04;4.77;;;4.00;;
22080;SDS011;11207;59.512;18.050;2023-04-25T05:49:30;3.87;;;3.57;;
22080;SDS011;11207;59.512;18.050;2023-04-25T05:51:56;5.13;;;3.67;;
22080;SDS011;11207;59.512;18.050;2023-04-25T05:54:21;4.50;;;4.10;;
22080;SDS011;11207;59.512;18.050;2023-04-25T05:56:47;4.73;;;3.90;;
22080;SDS011;11207;59.512;18.050;2023-04-25T05:59:14;4.83;;;4.30;;
22080;SDS011;11207;59.512;18.050;2023-04-25T06:01:39;4.80;;;4.40;;
22080;SDS011;11207;59.512;18.050;2023-04-25T06:04:05;4.73;;;4.33;;
22080;SDS011;11207;59.512;18.050;2023-04-25T06:06:31;4.20;;;3.90;;
22080;SDS011;11207;59.512;18.050;2023-04-25T06:08:59;4.87;;;4.37;;
22080;SDS011;11207;59.512;18.050;2023-04-25T06:11:25;4.80;;;4.30;;
22080;SDS011;11207;59.512;18.050;2023-04-25T06:13:51;5.00;;;4.60;;
22080;SDS011;11207;59.512;18.050;2023-04-25T06:16:17;5.70;;;4.00;;
22080;SDS011;11207;59.512;18.050;2023-04-25T06:18:42;4.70;;;4.30;;
22080;SDS011;11207;59.512;18.050;2023-04-25T06:21:08;4.33;;;3.90;;
22080;SDS011;11207;59.512;18.050;2023-04-25T06:23:33;4.43;;;4.03;;
22080;SDS011;11207;59.512;18.050;2023-04-25T06:25:59;4.93;;;3.70;;
22080;SDS011;11207;59.512;18.050;2023-04-25T06:28:25;4.27;;;3.87;;
22080;SDS011;11207;59.512;18.050;2023-04-25T06:30:50;4.50;;;4.00;;
22080;SDS011;11207;59.512;18.050;2023-04-25T06:33:16;3.70;;;3.40;;
22080;SDS011;11207;59.512;18.050;2023-04-25T06:35:42;4.40;;;4.00;;
22080;SDS011;11207;59.512;18.050;2023-04-25T06:38:09;4.87;;;4.03;;
22080;SDS011;11207;59.512;18.050;2023-04-25T06:40:35;3.93;;;3.57;;
22080;SDS011;11207;59.512;18.050;2023-04-25T06:43:00;4.03;;;3.60;;
22080;SDS011;11207;59.512;18.050;2023-04-25T06:45:26;4.67;;;4.10;;
22080;SDS011;11207;59.512;18.050;2023-04-25T06:47:52;3.87;;;3.57;;
22080;SDS011;11207;59.512;18.050;2023-04-25T06:50:25;3.93;;;3.63;;
22080;SDS011;11207;59.512;18.050;2023-04-25T06:52:50;4.13;;;3.73;;
22080;SDS011;11207;59.512;18.050;2023-04-25T06:55:16;4.00;;;3.60;;
22080;SDS011;11207;59.512;18.050;2023-04-25T06:57:42;5.07;;;3.40;;
22080;SDS011;11207;59.512;18.050;2023-04-25T07:00:07;4.10;;;3.70;;
22080;SDS011;11207;59.512;18.050;2023-04-25T07:02:37;4.80;;;3.77;;
22080;SDS011;11207;59.512;18.050;2023-04-25T07:05:02;3.67;;;3.37;;
22080;SDS011;11207;59.512;18.050;2023-04-25T07:07:30;4.53;;;3.70;;
22080;SDS011;11207;59.512;18.050;2023-04-25T07:09:55;5.47;;;3.60;;
22080;SDS011;11207;59.512;18.050;2023-04-25T07:12:21;3.40;;;3.10;;
22080;SDS011;11207;59.512;18.050;2023-04-25T07:14:49;3.93;;;3.50;;
22080;SDS011;11207;59.512;18.050;2023-04-25T07:17:19;3.93;;;3.53;;
22080;SDS011;11207;59.512;18.050;2023-04-25T07:19:46;4.80;;;3.40;;
22080;SDS011;11207;59.512;18.050;2023-04-25T07:22:12;4.20;;;3.40;;
22080;SDS011;11207;59.512;18.050;2023-04-25T07:24:38;3.67;;;3.37;;
22080;SDS011;11207;59.512;18.050;2023-04-25T07:27:04;3.67;;;3.30;;
22080;SDS011;11207;59.512;18.050;2023-04-25T07:29:29;3.43;;;3.20;;
22080;SDS011;11207;59.512;18.050;2023-04-25T07:31:56;3.70;;;3.40;;
22080;SDS011;11207;59.512;18.050;2023-04-25T07:34:23;3.43;;;3.20;;
22080;SDS011;11207;59.512;18.050;2023-04-25T07:36:48;3.63;;;3.30;;
22080;SDS011;11207;59.512;18.050;2023-04-25T07:39:14;3.77;;;3.47;;
22080;SDS011;11207;59.512;18.050;2023-04-25T07:41:39;3.77;;;3.47;;
22080;SDS011;11207;59.512;18.050;2023-04-25T07:44:05;3.60;;;3.30;;
22080;SDS011;11207;59.512;18.050;2023-04-25T07:46:31;3.80;;;3.50;;
22080;SDS011;11207;59.512;18.050;2023-04-25T07:48:57;3.57;;;3.27;;
22080;SDS011;11207;59.512;18.050;2023-04-25T07:51:22;4.67;;;3.50;;
22080;SDS011;11207;59.512;18.050;2023-04-25T07:53:48;3.73;;;3.43;;
22080;SDS011;11207;59.512;18.050;2023-04-25T07:56:14;3.60;;;3.30;;
22080;SDS011;11207;59.512;18.050;2023-04-25T07:58:39;3.67;;;3.37;;
22080;SDS011;11207;59.512;18.050;2023-04-25T08:01:06;3.50;;;3.20;;
22080;SDS011;11207;59.512;18.050;2023-04-25T08:03:31;4.13;;;3.73;;
22080;SDS011;11207;59.512;18.050;2023-04-25T08:05:57;19.90;;;11.93;;
22080;SDS011;11207;59.512;18.050;2023-04-25T08:08:22;15.33;;;9.77;;
22080;SDS011;11207;59.512;18.050;2023-04-25T08:10:49;38.43;;;22.10;;
22080;SDS011;11207;59.512;18.050;2023-04-25T08:13:16;12.63;;;8.60;;
22080;SDS011;11207;59.512;18.050;2023-04-25T08:15:44;7.30;;;5.90;;
22080;SDS011;11207;59.512;18.050;2023-04-25T08:18:09;4.73;;;4.03;;
22080;SDS011;11207;59.512;18.050;2023-04-25T08:20:35;4.20;;;3.80;;
22080;SDS011;11207;59.512;18.050;2023-04-25T08:23:01;4.00;;;3.60;;
22080;SDS011;11207;59.512;18.050;2023-04-25T08:25:29;3.83;;;3.43;;
22080;SDS011;11207;59.512;18.050;2023-04-25T08:27:55;3.80;;;3.50;;
22080;SDS011;11207;59.512;18.050;2023-04-25T08:30:22;3.70;;;3.40;;
22080;SDS011;11207;59.512;18.050;2023-04-25T08:32:47;4.13;;;3.70;;
22080;SDS011;11207;59.512;18.050;2023-04-25T08:35:13;3.63;;;3.33;;
22080;SDS011;11207;59.512;18.050;2023-04-25T08:37:39;3.70;;;3.20;;
22080;SDS011;11207;59.512;18.050;2023-04-25T08:40:04;4.47;;;4.07;;
22080;SDS011;11207;59.512;18.050;2023-04-25T08:42:33;4.10;;;3.70;;
22080;SDS011;11207;59.512;18.050;2023-04-25T08:45:02;3.70;;;3.33;;
22080;SDS011;11207;59.512;18.050;2023-04-25T08:47:30;5.03;;;3.67;;
22080;SDS011;11207;59.512;18.050;2023-04-25T08:49:58;5.23;;;3.80;;
22080;SDS011;11207;59.512;18.050;2023-04-25T08:52:27;3.90;;;3.60;;
22080;SDS011;11207;59.512;18.050;2023-04-25T08:54:56;3.80;;;3.50;;
22080;SDS011;11207;59.512;18.050;2023-04-25T08:57:23;4.93;;;4.00;;
22080;SDS011;11207;59.512;18.050;2023-04-25T08:59:49;4.60;;;4.03;;
22080;SDS011;11207;59.512;18.050;2023-04-25T09:02:19;4.33;;;3.67;;
22080;SDS011;11207;59.512;18.050;2023-04-25T09:04:46;5.53;;;4.40;;
22080;SDS011;11207;59.512;18.050;2023-04-25T09:07:14;4.40;;;4.00;;
22080;SDS011;11207;59.512;18.050;2023-04-25T09:09:45;4.00;;;3.60;;
22080;SDS011;11207;59.512;18.050;2023-04-25T09:12:16;3.70;;;3.40;;
22080;SDS011;11207;59.512;18.050;2023-04-25T09:14:46;5.00;;;3.80;;
22080;SDS011;11207;59.512;18.050;2023-04-25T09:17:29;4.77;;;3.80;;
22080;SDS011;11207;59.512;18.050;2023-04-25T09:19:55;4.00;;;3.60;;
22080;SDS011;11207;59.512;18.050;2023-04-25T09:22:30;4.10;;;3.77;;
22080;SDS011;11207;59.512;18.050;2023-04-25T09:24:55;4.47;;;3.67;;
22080;SDS011;11207;59.512;18.050;2023-04-25T09:27:21;5.17;;;3.67;;
22080;SDS011;11207;59.512;18.050;2023-04-25T09:29:56;5.83;;;3.53;;
22080;SDS011;11207;59.512;18.050;2023-04-25T09:32:26;4.30;;;3.90;;
22080;SDS011;11207;59.512;18.050;2023-04-25T09:34:53;4.80;;;4.00;;
22080;SDS011;11207;59.512;18.050;2023-04-25T09:37:20;4.07;;;3.67;;
22080;SDS011;11207;59.512;18.050;2023-04-25T09:39:49;4.10;;;3.63;;
22080;SDS011;11207;59.512;18.050;2023-04-25T09:42:20;4.57;;;4.00;;
22080;SDS011;11207;59.512;18.050;2023-04-25T09:44:49;4.80;;;4.07;;
22080;SDS011;11207;59.512;18.050;2023-04-25T09:47:17;4.33;;;3.93;;
22080;SDS011;11207;59.512;18.050;2023-04-25T09:49:43;4.00;;;3.70;;
22080;SDS011;11207;59.512;18.050;2023-04-25T09:52:10;7.00;;;4.07;;
22080;SDS011;11207;59.512;18.050;2023-04-25T09:54:40;5.50;;;4.20;;
22080;SDS011;11207;59.512;18.050;2023-04-25T09:57:10;4.97;;;4.03;;
22080;SDS011;11207;59.512;18.050;2023-04-25T09:59:42;5.37;;;4.30;;
22080;SDS011;11207;59.512;18.050;2023-04-25T10:02:18;4.50;;;4.10;;
22080;SDS011;11207;59.512;18.050;2023-04-25T10:04:47;5.93;;;3.80;;
22080;SDS011;11207;59.512;18.050;2023-04-25T10:07:17;6.20;;;3.97;;
22080;SDS011;11207;59.512;18.050;2023-04-25T10:09:44;4.60;;;4.03;;
22080;SDS011;11207;59.512;18.050;2023-04-25T10:12:13;4.20;;;3.70;;
22080;SDS011;11207;59.512;18.050;2023-04-25T10:14:39;4.33;;;3.93;;
22080;SDS011;11207;59.512;18.050;2023-04-25T10:17:05;5.30;;;4.10;;
22080;SDS011;11207;59.512;18.050;2023-04-25T10:19:31;4.97;;;4.20;;
22080;SDS011;11207;59.512;18.050;2023-04-25T10:22:03;4.83;;;4.30;;
22080;SDS011;11207;59.512;18.050;2023-04-25T10:24:33;6.03;;;4.10;;
22080;SDS011;11207;59.512;18.050;2023-04-25T10:27:04;5.17;;;4.30;;
22080;SDS011;11207;59.512;18.050;2023-04-25T10:29:30;4.53;;;4.10;;
22080;SDS011;11207;59.512;18.050;2023-04-25T10:31:59;5.70;;;4.37;;
22080;SDS011;11207;59.512;18.050;2023-04-25T10:34:25;6.57;;;4.50;;
22080;SDS011;11207;59.512;18.050;2023-04-25T10:37:08;6.23;;;4.30;;
22080;SDS011;11207;59.512;18.050;2023-04-25T10:39:35;4.87;;;4.00;;
22080;SDS011;11207;59.512;18.050;2023-04-25T10:42:07;6.50;;;4.30;;
22080;SDS011;11207;59.512;18.050;2023-04-25T10:44:33;5.00;;;4.50;;
22080;SDS011;11207;59.512;18.050;2023-04-25T10:47:00;4.73;;;4.13;;
22080;SDS011;11207;59.512;18.050;2023-04-25T10:49:28;4.67;;;4.00;;
22080;SDS011;11207;59.512;18.050;2023-04-25T10:52:24;7.43;;;4.50;;
22080;SDS011;11207;59.512;18.050;2023-04-25T10:55:09;7.13;;;4.73;;
22080;SDS011;11207;59.512;18.050;2023-04-25T10:58:00;5.27;;;4.50;;
22080;SDS011;11207;59.512;18.050;2023-04-25T11:00:29;4.23;;;3.83;;
22080;SDS011;11207;59.512;18.050;2023-04-25T11:02:59;6.03;;;4.47;;
22080;SDS011;11207;59.512;18.050;2023-04-25T11:07:56;6.33;;;5.33;;
22080;SDS011;11207;59.512;18.050;2023-04-25T11:12:56;7.37;;;5.13;;
22080;SDS011;11207;59.512;18.050;2023-04-25T11:15:23;6.23;;;4.90;;
22080;SDS011;11207;59.512;18.050;2023-04-25T11:17:52;7.70;;;5.40;;
22080;SDS011;11207;59.512;18.050;2023-04-25T11:20:18;5.73;;;4.90;;
22080;SDS011;11207;59.512;18.050;2023-04-25T11:22:53;6.73;;;5.23;;
22080;SDS011;11207;59.512;18.050;2023-04-25T11:25:22;7.73;;;6.20;;
22080;SDS011;11207;59.512;18.050;2023-04-25T11:27:52;6.13;;;5.30;;
22080;SDS011;11207;59.512;18.050;2023-04-25T11:30:21;9.57;;;6.13;;
22080;SDS011;11207;59.512;18.050;2023-04-25T11:32:48;6.53;;;5.30;;
22080;SDS011;11207;59.512;18.050;2023-04-25T11:35:15;6.70;;;5.33;;
22080;SDS011;11207;59.512;18.050;2023-04-25T11:37:44;6.73;;;5.40;;
22080;SDS011;11207;59.512;18.050;2023-04-25T11:40:11;9.83;;;5.80;;
22080;SDS011;11207;59.512;18.050;2023-04-25T11:42:44;6.40;;;5.70;;
22080;SDS011;11207;59.512;18.050;2023-04-25T11:45:12;6.37;;;5.73;;
22080;SDS011;11207;59.512;18.050;2023-04-25T11:47:41;7.10;;;5.60;;
22080;SDS011;11207;59.512;18.050;2023-04-25T11:50:07;8.37;;;5.57;;
22080;SDS011;11207;59.512;18.050;2023-04-25T11:52:37;8.30;;;6.10;;
22080;SDS011;11207;59.512;18.050;2023-04-25T11:55:08;8.00;;;5.80;;
22080;SDS011;11207;59.512;18.050;2023-04-25T11:57:41;6.20;;;5.30;;
22080;SDS011;11207;59.512;18.050;2023-04-25T12:00:27;6.87;;;5.57;;
22080;SDS011;11207;59.512;18.050;2023-04-25T12:02:53;6.33;;;5.60;;
22080;SDS011;11207;59.512;18.050;2023-04-25T12:05:23;7.17;;;5.23;;
22080;SDS011;11207;59.512;18.050;2023-04-25T12:07:50;5.50;;;5.00;;
22080;SDS011;11207;59.512;18.050;2023-04-25T12:10:17;8.70;;;5.40;;
22080;SDS011;11207;59.512;18.050;2023-04-25T12:12:44;7.07;;;5.00;;
22080;SDS011;11207;59.512;18.050;2023-04-25T12:17:48;7.30;;;5.50;;
22080;SDS011;11207;59.512;18.050;2023-04-25T12:20:18;10.73;;;6.30;;
22080;SDS011;11207;59.512;18.050;2023-04-25T12:22:49;6.23;;;5.23;;
22080;SDS011;11207;59.512;18.050;2023-04-25T12:33:32;6.60;;;5.50;;
22080;SDS011;11207;59.512;18.050;2023-04-25T12:36:03;5.73;;;5.13;;
22080;SDS011;11207;59.512;18.050;2023-04-25T12:38:38;7.20;;;5.70;;
22080;SDS011;11207;59.512;18.050;2023-04-25T12:41:09;8.07;;;5.57;;
22080;SDS011;11207;59.512;18.050;2023-04-25T12:43:40;6.63;;;5.27;;
22080;SDS011;11207;59.512;18.050;2023-04-25T12:46:06;6.87;;;5.77;;
22080;SDS011;11207;59.512;18.050;2023-04-25T12:48:32;7.57;;;5.63;;
22080;SDS011;11207;59.512;18.050;2023-04-25T12:50:58;7.93;;;5.93;;
22080;SDS011;11207;59.512;18.050;2023-04-25T12:53:23;8.87;;;6.13;;
22080;SDS011;11207;59.512;18.050;2023-04-25T12:55:49;6.53;;;5.73;;
22080;SDS011;11207;59.512;18.050;2023-04-25T12:58:17;9.57;;;6.40;;
22080;SDS011;11207;59.512;18.050;2023-04-25T13:00:44;11.43;;;6.37;;
22080;SDS011;11207;59.512;18.050;2023-04-25T13:03:10;13.33;;;8.60;;
22080;SDS011;11207;59.512;18.050;2023-04-25T13:05:39;7.73;;;6.47;;
22080;SDS011;11207;59.512;18.050;2023-04-25T13:08:07;7.27;;;5.93;;
22080;SDS011;11207;59.512;18.050;2023-04-25T13:10:34;9.30;;;5.80;;
22080;SDS011;11207;59.512;18.050;2023-04-25T13:13:04;7.10;;;6.00;;
22080;SDS011;11207;59.512;18.050;2023-04-25T13:15:30;8.07;;;5.97;;
22080;SDS011;11207;59.512;18.050;2023-04-25T13:17:58;7.13;;;6.00;;
22080;SDS011;11207;59.512;18.050;2023-04-25T13:20:24;9.47;;;6.60;;
22080;SDS011;11207;59.512;18.050;2023-04-25T13:23:00;7.73;;;6.47;;
22080;SDS011;11207;59.512;18.050;2023-04-25T13:25:28;7.93;;;6.63;;
22080;SDS011;11207;59.512;18.050;2023-04-25T13:28:00;8.70;;;6.70;;
22080;SDS011;11207;59.512;18.050;2023-04-25T13:30:29;9.27;;;6.30;;
22080;SDS011;11207;59.512;18.050;2023-04-25T13:32:55;7.73;;;6.93;;
22080;SDS011;11207;59.512;18.050;2023-04-25T13:35:25;7.87;;;6.40;;
22080;SDS011;11207;59.512;18.050;2023-04-25T13:37:59;8.57;;;6.50;;
22080;SDS011;11207;59.512;18.050;2023-04-25T13:40:25;10.87;;;6.90;;
22080;SDS011;11207;59.512;18.050;2023-04-25T13:42:52;9.13;;;6.77;;
22080;SDS011;11207;59.512;18.050;2023-04-25T13:45:18;9.67;;;6.83;;
22080;SDS011;11207;59.512;18.050;2023-04-25T13:47:45;10.83;;;7.53;;
22080;SDS011;11207;59.512;18.050;2023-04-25T13:50:18;8.70;;;7.00;;
22080;SDS011;11207;59.512;18.050;2023-04-25T13:52:54;9.30;;;6.73;;
22080;SDS011;11207;59.512;18.050;2023-04-25T13:55:20;8.97;;;6.43;;
22080;SDS011;11207;59.512;18.050;2023-04-25T13:57:45;8.50;;;6.53;;
22080;SDS011;11207;59.512;18.050;2023-04-25T14:00:20;9.20;;;7.00;;
22080;SDS011;11207;59.512;18.050;2023-04-25T14:02:46;10.27;;;7.23;;
22080;SDS011;11207;59.512;18.050;2023-04-25T14:05:11;11.97;;;7.40;;
22080;SDS011;11207;59.512;18.050;2023-04-25T14:07:40;9.27;;;6.97;;
22080;SDS011;11207;59.512;18.050;2023-04-25T14:10:09;10.80;;;7.47;;
22080;SDS011;11207;59.512;18.050;2023-04-25T14:12:35;8.77;;;6.73;;
22080;SDS011;11207;59.512;18.050;2023-04-25T14:15:03;8.90;;;6.40;;
22080;SDS011;11207;59.512;18.050;2023-04-25T14:17:30;11.07;;;7.07;;
22080;SDS011;11207;59.512;18.050;2023-04-25T14:19:55;10.80;;;7.00;;
22080;SDS011;11207;59.512;18.050;2023-04-25T14:22:21;10.30;;;6.80;;
22080;SDS011;11207;59.512;18.050;2023-04-25T14:24:47;12.57;;;7.40;;
22080;SDS011;11207;59.512;18.050;2023-04-25T14:27:12;9.00;;;7.50;;
22080;SDS011;11207;59.512;18.050;2023-04-25T14:29:43;9.87;;;7.50;;
22080;SDS011;11207;59.512;18.050;2023-04-25T14:32:09;12.40;;;7.47;;
22080;SDS011;11207;59.512;18.050;2023-04-25T14:34:44;9.83;;;7.73;;
22080;SDS011;11207;59.512;18.050;2023-04-25T14:37:10;9.20;;;7.00;;
22080;SDS011;11207;59.512;18.050;2023-04-25T14:39:38;10.43;;;7.90;;
22080;SDS011;11207;59.512;18.050;2023-04-25T14:42:07;12.77;;;8.97;;
22080;SDS011;11207;59.512;18.050;2023-04-25T14:44:34;11.43;;;9.20;;
22080;SDS011;11207;59.512;18.050;2023-04-25T14:47:00;14.47;;;10.07;;
22080;SDS011;11207;59.512;18.050;2023-04-25T14:49:26;13.30;;;9.73;;
22080;SDS011;11207;59.512;18.050;2023-04-25T14:51:57;14.63;;;10.30;;
22080;SDS011;11207;59.512;18.050;2023-04-25T14:54:23;19.10;;;11.77;;
22080;SDS011;11207;59.512;18.050;2023-04-25T14:56:54;14.47;;;10.90;;
22080;SDS011;11207;59.512;18.050;2023-04-25T14:59:22;15.23;;;11.13;;
22080;SDS011;11207;59.512;18.050;2023-04-25T15:01:49;17.73;;;11.27;;
22080;SDS011;11207;59.512;18.050;2023-04-25T15:04:15;15.93;;;10.50;;